Dobrodošli na spletni strani vremenske postaje Senovo. Vse informacije so informativnega značaja, saj vremenska postaja ni del državne mreže meteoroloških postaj. AKTUALNIH OBVESTIL NI.


Sneg/Led Od: 23-02-2018 00:00 Do: 23:59 Opozorilo za: Sneg/Led Stopnja: Rumena info button

Pogled proti Armezu več informacij Pogled proti Armezu


Lisca več informacij Lisca


Radar strel več informacij blitzortung!


opozorilo za sneg/led več informacij rain snow radar


Obiščite še:

Template documentation
and downloads

And another site



Weather Underground, zgodovina - Tekstovno

Dnevni povzetek za Januar 12, 2018 Enote:  Metrično    Angleško   Obe
« Predhodni Dan
Naslednji Dan »
Dnevni Tedenski Mesečni Letni Po meri
  Višja: Nižja: Povprečje:
Temperatura: -17.8 °C -17.3 °C -15.4 °C
Točka rosišča: -17.8 °C -17.7 °C -16.2 °C
Vlažnost: Humidity % 82 % 90 %
Hitrost vetra: 0 km/h 0 km/h 6.4 km/h
Sunki vetra: 0 km/h - -
Veter:- - East
Zračni tlak: 0 hPa 34405.1 hPa -
Padavine: 25.4 mm    
Historical Graphs
 
 
Tabelarni podarki za Januar 12, 2018
Čas Temperatura Točka rosišča Zračni tlak Veter Hitrost vetra Sunki vetra Vlažnost Intenziteta padavin (urna)
-17.8 °C -17.8 °C 0 hPa Calm     Humidity % 0 mm
00:00 -15.2 °C -15.7 °C 34476.3 hPa Calm     94 % 0 mm
00:01 -15.2 °C -15.7 °C 34476.3 hPa Calm     94 % 0 mm
00:08 -15.2 °C -15.7 °C 34476.3 hPa Calm     94 % 0 mm
00:16 -15.2 °C -15.7 °C 34428.8 hPa Calm     94 % 0 mm
00:36 -15.2 °C -15.7 °C 34428.8 hPa Calm     94 % 0 mm
00:37 -15.2 °C -15.7 °C 34428.8 hPa Calm     94 % 0 mm
00:48 -15.2 °C -15.7 °C 34428.8 hPa Calm     94 % 0 mm
00:51 -15.2 °C -15.7 °C 34428.8 hPa Calm     94 % 0 mm
01:05 -15.2 °C -15.6 °C 34476.3 hPa Calm     95 % 0 mm
01:23 -15.2 °C -15.6 °C 34476.3 hPa SW 4.3 km/h 9.8 km/h 95 % 0 mm
01:51 -15.2 °C -15.6 °C 34405.1 hPa Calm     95 % 0 mm
01:56 -15.2 °C -15.6 °C 34405.1 hPa Calm     95 % 0 mm
02:06 -15.2 °C -15.6 °C 34428.8 hPa Calm     95 % 0 mm
02:11 -15.2 °C -15.6 °C 34428.8 hPa Calm     95 % 0 mm
02:21 -15.2 °C -15.6 °C 34428.8 hPa SW 0.5 km/h 5.6 km/h 95 % 0 mm
02:27 -15.2 °C -15.6 °C 34428.8 hPa SW 0.5 km/h 5.6 km/h 95 % 0 mm
02:39 -15.2 °C -15.6 °C 34428.8 hPa Calm     95 % 0 mm
02:43 -15.3 °C -15.7 °C 34428.8 hPa Calm     95 % 0 mm
02:48 -15.3 °C -15.7 °C 34428.8 hPa Calm     95 % 0 mm
02:53 -15.3 °C -15.7 °C 34428.8 hPa Calm     95 % 0 mm
03:04 -15.3 °C -15.7 °C 34428.8 hPa Calm     95 % 0 mm
03:23 -15.4 °C -15.9 °C 34428.8 hPa Calm     95 % 0 mm
03:31 -15.4 °C -15.9 °C 34428.8 hPa Calm     95 % 0 mm
03:36 -15.5 °C -15.9 °C 34428.8 hPa Calm     95 % 0 mm
03:41 -15.5 °C -15.9 °C 34428.8 hPa Calm     95 % 0 mm
03:48 -15.6 °C -15.9 °C 34428.8 hPa Calm     95 % 0 mm
03:53 -15.6 °C -15.9 °C 34428.8 hPa Calm     96 % 0 mm
04:02 -15.7 °C -16.1 °C 34428.8 hPa Calm     96 % 0 mm
04:08 -15.7 °C -16.1 °C 34428.8 hPa Calm     96 % 0 mm
04:13 -15.8 °C -16.2 °C 34428.8 hPa Calm     95 % 0 mm
04:25 -16 °C -16.4 °C 34428.8 hPa Calm     95 % 0 mm
04:31 -16.1 °C -16.4 °C 34476.3 hPa SW 0.3 km/h 5.1 km/h 95 % 0 mm
04:36 -16.2 °C -16.5 °C 34476.3 hPa SW 0.8 km/h 5.1 km/h 96 % 0 mm
04:51 -16.3 °C -16.7 °C 34476.3 hPa Calm     95 % 0 mm
04:58 -16.4 °C -16.8 °C 34476.3 hPa Calm     95 % 0 mm
05:04 -16.4 °C -16.8 °C 34476.3 hPa Calm     95 % 0 mm
05:10 -16.4 °C -16.8 °C 34476.3 hPa Calm     95 % 0 mm
05:15 -16.5 °C -16.9 °C 34476.3 hPa Calm     95 % 0 mm
05:22 -16.6 °C -16.9 °C 34476.3 hPa Calm     95 % 0 mm
05:27 -16.6 °C -17 °C 34476.3 hPa Calm     95 % 0 mm
05:34 -16.7 °C -17.1 °C 34476.3 hPa Calm     95 % 0 mm
05:39 -16.7 °C -17.1 °C 34476.3 hPa Calm     96 % 0 mm
05:45 -16.8 °C -17.1 °C 34476.3 hPa Calm     96 % 0 mm
05:51 -16.8 °C -17.2 °C 34476.3 hPa Calm     95 % 0 mm
05:58 -16.9 °C -17.3 °C 34476.3 hPa Calm     95 % 0 mm
06:04 -16.9 °C -17.3 °C 34476.3 hPa Calm     95 % 0 mm
06:09 -16.9 °C -17.2 °C 34476.3 hPa Calm     96 % 0 mm
06:16 -16.9 °C -17.3 °C 34476.3 hPa Calm     95 % 0 mm
06:29 -17 °C -17.3 °C 34496.6 hPa Calm     96 % 0 mm
06:38 -17 °C -17.3 °C 34496.6 hPa Calm     96 % 0 mm
06:54 -17.1 °C -17.4 °C 34496.6 hPa Calm     96 % 0 mm
07:00 -17.1 °C -17.4 °C 34533.8 hPa Calm     96 % 0 mm
07:06 -17.2 °C -17.4 °C 34533.8 hPa Calm     96 % 0 mm
07:16 -17.2 °C -17.6 °C 34533.8 hPa Calm     95 % 0 mm
07:23 -17.2 °C -17.6 °C 34533.8 hPa Calm     96 % 0 mm
07:40 -17.3 °C -17.7 °C 34496.6 hPa Calm     96 % 0 mm
07:48 -17.3 °C -17.6 °C 34496.6 hPa Calm     96 % 0 mm
07:57 -17.3 °C -17.6 °C 34496.6 hPa Calm     96 % 0 mm
08:04 -17.3 °C -17.6 °C 34496.6 hPa Calm     96 % 0 mm
08:18 -17.2 °C -17.4 °C 34496.6 hPa Calm     96 % 0 mm
08:24 -17.2 °C -17.4 °C 34496.6 hPa Calm     96 % 0 mm
08:34 -17.1 °C -17.4 °C 34496.6 hPa Calm     96 % 0 mm
08:42 -17.1 °C -17.4 °C 34533.8 hPa Calm     96 % 0 mm
08:49 -17 °C -17.3 °C 34533.8 hPa Calm     96 % 0 mm
09:11 -16.8 °C -17 °C 34533.8 hPa Calm     97 % 0 mm
09:16 -16.7 °C -16.9 °C 34533.8 hPa Calm     97 % 0 mm
09:27 -16.6 °C -16.9 °C 34533.8 hPa Calm     96 % 0 mm
09:34 -16.5 °C -16.7 °C 34533.8 hPa Calm     97 % 0 mm
09:50 -16.2 °C -16.4 °C 34533.8 hPa Calm   3.4 km/h 97 % 0 mm
09:59 -16.1 °C -16.3 °C 34567.7 hPa Calm     97 % 0 mm
10:11 -15.8 °C -16.1 °C 34567.7 hPa Calm     97 % 0 mm
10:16 -15.8 °C -16 °C 34567.7 hPa Calm     97 % 0 mm
10:22 -15.7 °C -15.9 °C 34567.7 hPa Calm     97 % 0 mm
10:27 -15.6 °C -15.8 °C 34567.7 hPa Calm     97 % 0 mm
10:38 -15.4 °C -15.6 °C 34567.7 hPa ESE 0.5 km/h 6.4 km/h 97 % 0 mm
10:46 -15.3 °C -15.6 °C 34567.7 hPa NNE 1 km/h 6.9 km/h 97 % 0 mm
10:52 -15.2 °C -15.4 °C 34567.7 hPa ESE 3.1 km/h 6.9 km/h 97 % 0 mm
11:07 -14.9 °C -15.1 °C 34601.5 hPa South 6 km/h 11.1 km/h 97 % 0 mm
11:15 -14.8 °C -15.1 °C 34567.7 hPa SE 5 km/h 11.1 km/h 97 % 0 mm
11:21 -14.7 °C -14.9 °C 34567.7 hPa SE 4.2 km/h 9.8 km/h 97 % 0 mm
11:40 -14.3 °C -14.6 °C 34567.7 hPa East 9 km/h 16.9 km/h 97 % 0 mm
11:47 -14.3 °C -14.6 °C 34567.7 hPa East 9.8 km/h 16.9 km/h 97 % 0 mm
12:18 -14.2 °C -14.5 °C 34567.7 hPa ESE 11.6 km/h 22.5 km/h 96 % 0 mm
12:24 -14.1 °C -14.4 °C 34567.7 hPa East 11.1 km/h 20.3 km/h 96 % 0 mm
12:32 -14.1 °C -14.5 °C 34533.8 hPa East 14.2 km/h 26.2 km/h 95 % 0 mm
12:39 -14.1 °C -14.6 °C 34533.8 hPa East 14.2 km/h 22 km/h 94 % 0 mm
12:44 -14.2 °C -14.7 °C 34533.8 hPa East 15 km/h 25.4 km/h 94 % 0 mm
12:49 -14.1 °C -14.7 °C 34533.8 hPa East 15.3 km/h 25.4 km/h 93 % 0 mm
13:02 -14.1 °C -14.9 °C 34533.8 hPa ESE 14 km/h 26.7 km/h 91 % 0 mm
13:11 -14.2 °C -15 °C 34533.8 hPa ESE 12.2 km/h 24.8 km/h 90 % 0 mm
13:17 -14.2 °C -15.1 °C 34533.8 hPa East 12.9 km/h 25.4 km/h 89 % 0 mm
13:41 -14.3 °C -15.4 °C 34533.8 hPa East 14.5 km/h 25.4 km/h 87 % 0 mm
13:51 -14.3 °C -15.5 °C 34533.8 hPa East 14.5 km/h 24.8 km/h 86 % 0 mm
13:59 -14.4 °C -15.6 °C 34533.8 hPa East 14 km/h 26.7 km/h 86 % 0 mm
14:04 -14.4 °C -15.7 °C 34533.8 hPa East 12.7 km/h 26.7 km/h 85 % 0 mm
14:14 -14.4 °C -15.7 °C 34567.7 hPa ESE 10.9 km/h 22 km/h 85 % 0 mm
14:22 -14.4 °C -15.8 °C 34567.7 hPa East 13.7 km/h 26.2 km/h 84 % 0 mm
14:31 -14.4 °C -15.8 °C 34567.7 hPa East 13.2 km/h 25.4 km/h 84 % 0 mm
14:43 -14.4 °C -15.9 °C 34567.7 hPa East 13.2 km/h 29 km/h 83 % 0 mm
14:48 -14.4 °C -15.9 °C 34567.7 hPa East 11.9 km/h 28.5 km/h 83 % 0 mm
14:56 -14.4 °C -16 °C 34567.7 hPa East 12.2 km/h 23.8 km/h 82 % 0 mm
15:04 -14.4 °C -16 °C 34567.7 hPa East 11.1 km/h 22.5 km/h 82 % 0 mm
15:10 -14.4 °C -16 °C 34567.7 hPa ENE 12.9 km/h 22.5 km/h 82 % 0 mm
15:17 -14.4 °C -16 °C 34567.7 hPa East 11.9 km/h 22.5 km/h 82 % 0 mm
15:22 -14.4 °C -16 °C 34567.7 hPa East 7.2 km/h 19.2 km/h 82 % 0 mm
15:27 -14.5 °C -16.1 °C 34567.7 hPa East 6.3 km/h 12.7 km/h 82 % 0 mm
15:37 -14.5 °C -16.1 °C 34567.7 hPa ESE 5.5 km/h 11.1 km/h 82 % 0 mm
15:46 -14.5 °C -16.1 °C 34567.7 hPa East 9.7 km/h 20.9 km/h 82 % 0 mm
15:54 -14.6 °C -16.2 °C 34567.7 hPa East 15 km/h 24.8 km/h 82 % 0 mm
16:02 -14.6 °C -16.2 °C 34567.7 hPa East 15.3 km/h 24.8 km/h 82 % 7.62 mm
16:10 -14.6 °C -16.2 °C 34567.7 hPa East 16.3 km/h 27.7 km/h 82 % 7.62 mm
16:18 -14.6 °C -16.2 °C 34533.8 hPa ENE 12.7 km/h 22 km/h 82 % 7.62 mm
16:29 -14.7 °C -16.2 °C 34533.8 hPa ENE 11.6 km/h 20.9 km/h 82 % 7.62 mm
16:38 -14.7 °C -16.2 °C 34533.8 hPa East 12.2 km/h 22.5 km/h 83 % 7.62 mm
16:48 -14.7 °C -16.2 °C 34567.7 hPa East 14 km/h 31.9 km/h 83 % 7.62 mm
16:55 -14.7 °C -16.2 °C 34567.7 hPa East 16.1 km/h 31.9 km/h 83 % 7.62 mm
17:05 -14.7 °C -16.2 °C 34567.7 hPa East 19.5 km/h 38.3 km/h 83 % 0 mm
17:10 -14.7 °C -16.2 °C 34567.7 hPa East 18.7 km/h 34.1 km/h 83 % 0 mm
17:20 -14.8 °C -16.3 °C 34567.7 hPa East 15.6 km/h 26.7 km/h 83 % 0 mm
17:25 -14.8 °C -16.3 °C 34567.7 hPa East 12.9 km/h 22 km/h 83 % 0 mm
17:30 -14.8 °C -16.2 °C 34567.7 hPa East 11.4 km/h 20.3 km/h 84 % 0 mm
17:36 -14.8 °C -16.2 °C 34567.7 hPa ENE 10.1 km/h 16.9 km/h 84 % 7.62 mm
17:41 -14.8 °C -16.2 °C 34567.7 hPa ENE 10.9 km/h 26.2 km/h 84 % 7.62 mm
17:47 -14.8 °C -16.2 °C 34567.7 hPa ENE 11.4 km/h 26.2 km/h 84 % 7.62 mm
17:52 -14.9 °C -16.3 °C 34567.7 hPa ENE 10.1 km/h 19.6 km/h 84 % 7.62 mm
18:01 -14.9 °C -16.3 °C 34601.5 hPa ENE 12.4 km/h 24.8 km/h 84 % 7.62 mm
18:23 -14.9 °C -16.2 °C 34601.5 hPa East 12.4 km/h 34.1 km/h 85 % 7.62 mm
18:28 -14.9 °C -16.2 °C 34601.5 hPa East 14.8 km/h 22.5 km/h 85 % 7.62 mm
18:34 -14.9 °C -16.2 °C 34601.5 hPa East 11.1 km/h 22.5 km/h 85 % 7.62 mm
18:41 -14.9 °C -16.2 °C 34601.5 hPa East 8 km/h 19.6 km/h 85 % 7.62 mm
18:51 -14.9 °C -16.2 °C 34601.5 hPa ENE 10.9 km/h 25.4 km/h 85 % 7.62 mm
18:57 -14.9 °C -16.2 °C 34635.4 hPa ENE 11.6 km/h 25.4 km/h 85 % 7.62 mm
19:03 -14.9 °C -16.2 °C 34635.4 hPa East 9 km/h 17.4 km/h 86 % 7.62 mm
19:11 -15 °C -16.2 °C 34635.4 hPa ENE 12.4 km/h 27.2 km/h 86 % 7.62 mm
19:19 -15 °C -16.2 °C 34635.4 hPa NE 12.2 km/h 26.2 km/h 86 % 7.62 mm
19:47 -15.1 °C -16.2 °C 34635.4 hPa ENE 11.1 km/h 26.2 km/h 86 % 7.62 mm
19:52 -15.1 °C -16.2 °C 34635.4 hPa East 10.9 km/h 19.2 km/h 86 % 7.62 mm
19:57 -15.1 °C -16.2 °C 34635.4 hPa East 11.6 km/h 19.2 km/h 86 % 7.62 mm
20:10 -15.1 °C -16.3 °C 34635.4 hPa East 14.2 km/h 22 km/h 86 % 7.62 mm
20:16 -15.1 °C -16.2 °C 34635.4 hPa ENE 13.5 km/h 20.9 km/h 87 % 7.62 mm
20:28 -15.1 °C -16.2 °C 34635.4 hPa ENE 12.9 km/h 28.5 km/h 87 % 7.62 mm
20:39 -15.1 °C -16.2 °C 34635.4 hPa East 13.7 km/h 27.7 km/h 87 % 7.62 mm
21:09 -15 °C -16.1 °C 34635.4 hPa East 14.8 km/h 22.5 km/h 87 % 7.62 mm
21:14 -15 °C -16.1 °C 34635.4 hPa ESE 13.5 km/h 22.5 km/h 87 % 7.62 mm
21:21 -15 °C -16.1 °C 34635.4 hPa East 11.1 km/h 20.3 km/h 87 % 7.62 mm
21:29 -15 °C -16.1 °C 34601.5 hPa East 12.2 km/h 19.6 km/h 87 % 7.62 mm
21:39 -14.9 °C -16.1 °C 34601.5 hPa ENE 11.1 km/h 28.5 km/h 87 % 0 mm
21:50 -14.9 °C -16.1 °C 34635.4 hPa ENE 12.7 km/h 27.7 km/h 87 % 0 mm
21:57 -14.9 °C -16.1 °C 34601.5 hPa NE 11.4 km/h 31.4 km/h 87 % 0 mm
22:06 -14.9 °C -16.1 °C 34601.5 hPa ENE 12.2 km/h 22 km/h 87 % 0 mm
22:27 -14.9 °C -16.2 °C 34635.4 hPa ENE 15 km/h 31.9 km/h 86 % 0 mm
22:33 -14.9 °C -16.2 °C 34635.4 hPa ENE 15 km/h 27.7 km/h 86 % 0 mm
22:40 -15 °C -16.2 °C 34635.4 hPa NE 16.3 km/h 27.7 km/h 86 % 0 mm
22:50 -15 °C -16.2 °C 34635.4 hPa ENE 16.3 km/h 31.4 km/h 86 % 0 mm
23:00 -15 °C -16.2 °C 34635.4 hPa ENE 16.6 km/h 33.6 km/h 86 % 0 mm
23:08 -15 °C -16.2 °C 34635.4 hPa East 13.2 km/h 33.6 km/h 86 % 0 mm
23:16 -15 °C -16.2 °C 34635.4 hPa ENE 14.2 km/h 26.7 km/h 86 % 0 mm
23:23 -15.1 °C -16.2 °C 34635.4 hPa ENE 12.4 km/h 31.4 km/h 86 % 0 mm
23:32 -15.1 °C -16.2 °C 34635.4 hPa East 12.2 km/h 20.9 km/h 86 % 0 mm
23:37 -15.1 °C -16.3 °C 34635.4 hPa ENE 11.9 km/h 20.9 km/h 86 % 0 mm
23:46 -15.1 °C -16.3 °C 34635.4 hPa NE 8.9 km/h 17.9 km/h 86 % 0 mm
23:58 -15.1 °C -16.3 °C 34635.4 hPa ENE 9.7 km/h 16.3 km/h 86 % 0 mm
Vremenska postaja Senovo
Podatki zbrani iz Weather Underground - 2.25 mb

Script developed by  Jim McMurry - jmcmurry@mwt.net Adapted for the template by  Wim van der Kuil - Leuven-Template.eu

Vremenski podatki so objavljeni na:

European Weather Network

WeatherCloud

Weather Underground

AWEKAS

HAMweather, WeatherForYou, PWS Weather

MapView

Geostik

Slovenia weather network

Oprema, ki se uporablja:

Vremenski program
Cumulus

Vremenski server
Asus

Cumulus

Asus